Lizemores, West Virginia
Current Conditions -  °F | °C
As of 5:54 AM on Friday 19 Dec 2014 (Local Time) from KCRW Reporting Station
Overcast Overcast  
Wind Chill: 28°   Ceiling: 2500
Heat Index: 28°   Visibility: 10mi
Dew Point: 22°   Wind: 0mph
Humidity: 78%   Direction: NA
Pressure: 30.22"   Gusts: NA
Location:  38.33°N, 81.18°W
Report Text: KCRW 191054Z 00000KT 10SM OVC025 M02/M06 A3022 RMK AO2 SLP244 T10221056 $
Loading
Personal Weather Stations






























Interactive Weather Map New forecast layout! Learn more

10-Day Weather Forecast

Advertisements
Track Severe Weather on mobile